Swakopmund, Namibia
Current Conditions -  °F | °C
As of 10:00 AM on Monday 24 Nov 2014 (Local Time) from FYWE Reporting Station
Clear Clear  
Wind Chill: 79°   Ceiling: Unl
Heat Index: 79°   Visibility: 6mi
Dew Point: 18°   Wind: 5mph
Humidity: 10%   Direction: 230°SW
Pressure: 30.21"   Gusts: NA
Location:  22.67°S, 14.52°E
Report Text: FYWE 240900Z 23004KT CAVOK 26/M08 Q1023
Loading
Personal Weather Stations






























Interactive Weather Map New forecast layout! Learn more

10-Day Weather Forecast

Advertisements
Track Severe Weather on mobile